createdAt,value
2023-02-16T00:01:24.960Z,-1.20
2023-02-16T00:04:30.905Z,-1.23
2023-02-16T00:07:33.642Z,-1.24
2023-02-16T00:10:38.308Z,-1.27
2023-02-16T00:13:53.165Z,-1.22
2023-02-16T00:16:58.182Z,-1.24
2023-02-16T00:20:00.937Z,-1.24
2023-02-16T00:23:03.832Z,-1.22
2023-02-16T00:26:14.621Z,-1.29
2023-02-16T00:29:22.995Z,-1.28
2023-02-16T00:32:25.780Z,-1.26
2023-02-16T00:35:28.644Z,-1.29
2023-02-16T00:38:33.683Z,-1.42
2023-02-16T00:41:51.752Z,-1.43
2023-02-16T00:44:56.917Z,-1.46
2023-02-16T00:47:59.707Z,-1.40
2023-02-16T00:51:06.891Z,-1.46
2023-02-16T00:54:14.305Z,-1.48
2023-02-16T00:57:19.117Z,-1.47
2023-02-16T01:00:24.453Z,-1.59
2023-02-16T01:03:29.886Z,-1.70
2023-02-16T01:06:51.762Z,-1.61
2023-02-16T01:10:13.096Z,-1.57
2023-02-16T01:13:15.975Z,-1.62
2023-02-16T01:16:20.098Z,-1.46
2023-02-16T01:19:23.032Z,-1.54
2023-02-16T01:22:26.850Z,-1.55
2023-02-16T01:25:29.915Z,-1.57
2023-02-16T01:28:36.696Z,-1.57
2023-02-16T01:31:39.624Z,-1.69
2023-02-16T01:34:42.503Z,-1.79
2023-02-16T01:37:45.319Z,-1.85
2023-02-16T01:41:32.723Z,-1.79
2023-02-16T01:44:48.419Z,-1.82
2023-02-16T01:47:58.622Z,-1.73
2023-02-16T01:51:23.514Z,-1.74
2023-02-16T01:54:48.722Z,-1.96
2023-02-16T01:58:04.409Z,-1.93
2023-02-16T02:01:40.006Z,-1.88
2023-02-16T02:05:06.935Z,-1.84
2023-02-16T02:08:22.022Z,-1.84
2023-02-16T02:11:30.066Z,-1.94
2023-02-16T02:14:37.456Z,-1.91
2023-02-16T02:17:41.025Z,-1.89
2023-02-16T02:21:19.349Z,-1.89
2023-02-16T02:24:59.875Z,-1.87
2023-02-16T02:28:15.313Z,-1.98
2023-02-16T02:31:22.447Z,-2.04
2023-02-16T02:34:43.846Z,-2.12
2023-02-16T02:38:02.801Z,-2.05
2023-02-16T02:41:45.653Z,-2.18
2023-02-16T02:45:07.483Z,-2.02
2023-02-16T02:48:10.288Z,-1.98
2023-02-16T02:51:29.841Z,-2.12
2023-02-16T02:55:00.393Z,-2.18
2023-02-16T02:58:25.812Z,-2.30
2023-02-16T03:01:31.774Z,-2.28
2023-02-16T03:04:34.629Z,-2.38
2023-02-16T03:07:47.595Z,-2.47
2023-02-16T03:11:22.662Z,-2.45
2023-02-16T03:14:33.706Z,-2.33
2023-02-16T03:17:56.699Z,-2.31
2023-02-16T03:21:21.365Z,-2.37
2023-02-16T03:24:48.860Z,-2.38
2023-02-16T03:28:11.569Z,-2.37
2023-02-16T03:31:22.448Z,-2.29
2023-02-16T03:34:26.198Z,-2.26
2023-02-16T03:37:28.915Z,-2.25
2023-02-16T03:40:35.122Z,-2.34
2023-02-16T03:43:37.828Z,-2.42
2023-02-16T03:46:40.796Z,-2.46
2023-02-16T03:49:44.093Z,-2.42
2023-02-16T03:52:47.166Z,-2.36
2023-02-16T03:55:49.910Z,-2.25
2023-02-16T03:58:52.678Z,-2.25
2023-02-16T04:01:55.530Z,-2.27
2023-02-16T04:04:58.524Z,-2.29
2023-02-16T04:08:01.560Z,-2.43
2023-02-16T04:11:24.372Z,-2.44
2023-02-16T04:14:28.473Z,-2.41
2023-02-16T04:17:31.224Z,-2.52
2023-02-16T04:20:35.164Z,-2.48
2023-02-16T04:23:38.072Z,-2.45
2023-02-16T04:26:40.784Z,-2.52
2023-02-16T04:29:43.605Z,-2.59
2023-02-16T04:32:46.493Z,-2.60
2023-02-16T04:35:49.225Z,-2.59
2023-02-16T04:38:52.378Z,-2.59
2023-02-16T04:41:55.117Z,-2.53
2023-02-16T04:44:57.888Z,-2.60
2023-02-16T04:48:00.669Z,-2.78
2023-02-16T04:51:04.963Z,-2.73
2023-02-16T04:54:08.089Z,-2.70
2023-02-16T04:57:11.810Z,-2.74
2023-02-16T05:00:15.062Z,-2.84
2023-02-16T05:03:17.863Z,-2.75
2023-02-16T05:06:20.785Z,-2.84
2023-02-16T05:09:23.596Z,-2.93
2023-02-16T05:12:45.081Z,-2.83
2023-02-16T05:15:47.920Z,-2.87
2023-02-16T05:18:50.897Z,-2.81
2023-02-16T05:21:53.676Z,-2.85
2023-02-16T05:24:56.476Z,-2.96
2023-02-16T05:27:59.260Z,-3.02
2023-02-16T05:31:02.440Z,-2.92
2023-02-16T05:34:05.330Z,-2.82
2023-02-16T05:37:08.077Z,-2.77
2023-02-16T05:40:11.453Z,-2.75
2023-02-16T05:43:14.232Z,-2.59
2023-02-16T05:46:16.994Z,-2.56
2023-02-16T05:49:19.880Z,-2.68
2023-02-16T05:52:22.692Z,-2.61
2023-02-16T05:55:25.423Z,-2.57
2023-02-16T05:58:28.157Z,-2.69
2023-02-16T06:01:31.309Z,-2.53
2023-02-16T06:04:34.050Z,-2.43
2023-02-16T06:07:36.761Z,-2.54
2023-02-16T06:10:39.512Z,-2.46
2023-02-16T06:13:42.244Z,-2.38
2023-02-16T06:16:47.848Z,-2.27
2023-02-16T06:19:50.658Z,-2.17
2023-02-16T06:22:53.404Z,-2.22
2023-02-16T06:25:56.212Z,-2.17
2023-02-16T06:28:59.268Z,-2.02
2023-02-16T06:32:02.238Z,-1.94
2023-02-16T06:35:05.410Z,-1.82
2023-02-16T06:38:08.200Z,-1.63
2023-02-16T06:41:12.929Z,-1.48
2023-02-16T06:44:17.688Z,-1.42
2023-02-16T06:47:24.743Z,-1.37
2023-02-16T06:50:31.150Z,-1.26
2023-02-16T06:53:37.998Z,-1.20
2023-02-16T06:56:44.417Z,-1.15
2023-02-16T06:59:49.608Z,-1.08
2023-02-16T07:02:53.868Z,-0.90
2023-02-16T07:05:57.742Z,-0.69
2023-02-16T07:09:00.762Z,-0.54
2023-02-16T07:12:05.373Z,-0.45
2023-02-16T07:15:08.641Z,-0.27
2023-02-16T07:18:11.549Z,-0.19
2023-02-16T07:21:15.533Z,-0.13
2023-02-16T07:24:18.336Z,-0.05
2023-02-16T07:27:21.056Z,0.10
2023-02-16T07:30:23.831Z,0.34
2023-02-16T07:33:26.585Z,0.47
2023-02-16T07:36:29.318Z,0.68
2023-02-16T07:39:32.258Z,0.84
2023-02-16T07:42:35.406Z,0.99
2023-02-16T07:45:39.328Z,1.20
2023-02-16T07:48:42.406Z,1.32
2023-02-16T07:51:45.332Z,1.46
2023-02-16T07:54:48.170Z,1.45
2023-02-16T07:57:54.802Z,1.59
2023-02-16T08:01:07.510Z,1.81
2023-02-16T08:04:10.278Z,1.91
2023-02-16T08:07:17.916Z,2.10
2023-02-16T08:10:21.744Z,2.29
2023-02-16T08:13:24.502Z,2.43
2023-02-16T08:16:28.845Z,2.59
2023-02-16T08:19:32.562Z,2.75
2023-02-16T08:22:36.373Z,2.96
2023-02-16T08:25:39.188Z,3.11
2023-02-16T08:28:46.117Z,3.26
2023-02-16T08:31:50.099Z,3.50
2023-02-16T08:34:52.847Z,3.69
2023-02-16T08:37:55.566Z,3.81
2023-02-16T08:40:59.855Z,4.06
2023-02-16T08:44:03.709Z,4.17
2023-02-16T08:47:06.855Z,4.33
2023-02-16T08:50:10.044Z,4.47
2023-02-16T08:53:15.541Z,4.53
2023-02-16T08:56:18.712Z,4.82
2023-02-16T08:59:23.002Z,4.87
2023-02-16T09:02:26.159Z,4.97
2023-02-16T09:05:28.991Z,5.04
2023-02-16T09:08:37.656Z,5.10
2023-02-16T09:11:41.176Z,5.33
2023-02-16T09:14:44.111Z,5.48
2023-02-16T09:17:47.071Z,5.64
2023-02-16T09:20:49.899Z,5.70
2023-02-16T09:23:55.944Z,5.81
2023-02-16T09:26:58.697Z,5.94
2023-02-16T09:30:01.440Z,5.98
2023-02-16T09:33:05.025Z,6.02
2023-02-16T09:36:10.126Z,6.08
2023-02-16T09:39:14.053Z,6.37
2023-02-16T09:42:45.306Z,6.52
2023-02-16T09:45:52.104Z,6.68
2023-02-16T09:48:55.515Z,6.57
2023-02-16T09:52:13.173Z,6.67
2023-02-16T09:55:18.658Z,6.90
2023-02-16T09:58:27.855Z,7.11
2023-02-16T10:01:40.314Z,7.31
2023-02-16T10:05:08.484Z,7.36
2023-02-16T10:08:22.913Z,7.62
2023-02-16T10:11:48.829Z,7.64
2023-02-16T10:15:03.339Z,7.71
2023-02-16T10:18:20.579Z,7.91
2023-02-16T10:21:27.778Z,7.95
2023-02-16T10:24:39.965Z,8.01
2023-02-16T10:27:50.457Z,7.97
2023-02-16T10:31:03.448Z,8.02
2023-02-16T10:34:14.588Z,8.19
2023-02-16T10:37:37.114Z,8.39
2023-02-16T10:41:33.685Z,8.44
2023-02-16T10:44:44.819Z,8.64
2023-02-16T10:47:48.644Z,8.64
2023-02-16T10:51:19.536Z,8.70
2023-02-16T10:54:33.074Z,8.61
2023-02-16T10:57:35.960Z,8.66
2023-02-16T11:00:44.326Z,8.63
2023-02-16T11:03:50.210Z,8.79
2023-02-16T11:07:12.140Z,8.72
2023-02-16T11:10:33.957Z,8.75
2023-02-16T11:13:37.487Z,8.81
2023-02-16T11:16:40.425Z,9.00
2023-02-16T11:19:54.198Z,8.97
2023-02-16T11:23:23.447Z,9.13
2023-02-16T11:26:26.970Z,9.32
2023-02-16T11:29:30.107Z,9.29
2023-02-16T11:32:34.346Z,9.02
2023-02-16T11:35:43.345Z,8.91
2023-02-16T11:38:57.791Z,9.16
2023-02-16T11:42:05.392Z,9.30
2023-02-16T11:45:09.846Z,9.37
2023-02-16T11:48:14.770Z,9.41
2023-02-16T11:51:32.591Z,9.22
2023-02-16T11:54:35.942Z,9.30
2023-02-16T11:57:39.236Z,9.36
2023-02-16T12:01:06.235Z,9.38
2023-02-16T12:04:33.932Z,9.46
2023-02-16T12:07:46.961Z,9.34
2023-02-16T12:11:18.414Z,9.53
2023-02-16T12:14:57.655Z,9.64
2023-02-16T12:18:28.308Z,9.70
2023-02-16T12:21:41.308Z,9.72
2023-02-16T12:24:51.167Z,9.67
2023-02-16T12:28:20.381Z,9.58
2023-02-16T12:31:35.017Z,9.67
2023-02-16T12:34:53.535Z,9.69
2023-02-16T12:38:11.778Z,9.69
2023-02-16T12:41:29.821Z,9.89
2023-02-16T12:44:42.884Z,9.79
2023-02-16T12:48:20.320Z,9.84
2023-02-16T12:51:28.913Z,9.94
2023-02-16T12:55:08.326Z,9.71
2023-02-16T12:58:15.029Z,9.88
2023-02-16T13:01:22.055Z,9.95
2023-02-16T13:05:10.269Z,9.97
2023-02-16T13:08:22.358Z,9.87
2023-02-16T13:11:33.735Z,9.79
2023-02-16T13:14:41.830Z,9.82
2023-02-16T13:17:53.250Z,9.91
2023-02-16T13:21:04.396Z,9.89
2023-02-16T13:24:18.753Z,9.95
2023-02-16T13:27:30.070Z,9.95
2023-02-16T13:30:48.528Z,9.90
2023-02-16T13:34:13.207Z,9.90
2023-02-16T13:37:43.377Z,9.84
2023-02-16T13:41:14.068Z,9.77
2023-02-16T13:44:24.971Z,9.94
2023-02-16T13:47:39.580Z,9.94
2023-02-16T13:50:43.125Z,9.96
2023-02-16T13:53:54.770Z,9.98
2023-02-16T13:56:57.937Z,10.03
2023-02-16T14:00:04.475Z,9.88
2023-02-16T14:03:22.434Z,9.90
2023-02-16T14:06:32.601Z,9.94
2023-02-16T14:09:38.047Z,9.92
2023-02-16T14:12:41.342Z,9.86
2023-02-16T14:15:55.907Z,9.74
2023-02-16T14:19:02.709Z,9.78
2023-02-16T14:22:12.506Z,9.70
2023-02-16T14:25:24.031Z,9.64
2023-02-16T14:28:29.803Z,9.57
2023-02-16T14:31:39.986Z,9.56
2023-02-16T14:34:57.453Z,9.53
2023-02-16T14:38:03.725Z,9.53
2023-02-16T14:41:23.917Z,9.45
2023-02-16T14:45:03.665Z,9.37
2023-02-16T14:48:36.026Z,9.30
2023-02-16T14:51:57.068Z,9.26
2023-02-16T14:55:28.473Z,9.25
2023-02-16T14:58:55.400Z,9.27
2023-02-16T15:01:58.889Z,9.28
2023-02-16T15:05:19.447Z,9.30
2023-02-16T15:08:25.437Z,9.29
2023-02-16T15:11:56.989Z,9.29
2023-02-16T15:15:10.210Z,9.24
2023-02-16T15:18:19.828Z,9.24
2023-02-16T15:21:28.379Z,9.27
2023-02-16T15:24:31.412Z,9.24
2023-02-16T15:27:34.572Z,9.09
2023-02-16T15:30:41.346Z,8.92
2023-02-16T15:33:55.784Z,8.68
2023-02-16T15:36:58.550Z,8.50
2023-02-16T15:40:26.622Z,8.35
2023-02-16T15:43:38.535Z,8.19
2023-02-16T15:46:43.870Z,8.03
2023-02-16T15:49:46.875Z,7.85
2023-02-16T15:52:49.706Z,7.76
2023-02-16T15:55:52.597Z,7.63
2023-02-16T15:59:01.104Z,7.52
2023-02-16T16:02:06.626Z,7.41
2023-02-16T16:05:33.004Z,7.29
2023-02-16T16:08:36.107Z,7.20
2023-02-16T16:11:39.049Z,7.07
2023-02-16T16:14:58.153Z,7.06
2023-02-16T16:18:02.776Z,6.98
2023-02-16T16:21:13.559Z,6.96
2023-02-16T16:24:34.210Z,6.90
2023-02-16T16:27:37.295Z,6.82
2023-02-16T16:30:46.827Z,6.63
2023-02-16T16:33:59.500Z,6.58
2023-02-16T16:37:04.304Z,6.43
2023-02-16T16:40:20.041Z,6.25
2023-02-16T16:43:29.156Z,6.13
2023-02-16T16:46:33.173Z,6.06
2023-02-16T16:49:36.402Z,5.89
2023-02-16T16:52:47.089Z,5.77
2023-02-16T16:55:49.889Z,5.62
2023-02-16T16:58:56.891Z,5.54
2023-02-16T17:02:00.014Z,5.63
2023-02-16T17:05:03.369Z,5.52
2023-02-16T17:08:06.770Z,5.41
2023-02-16T17:11:33.966Z,5.35
2023-02-16T17:14:36.771Z,5.06
2023-02-16T17:17:40.038Z,4.95
2023-02-16T17:20:44.566Z,4.84
2023-02-16T17:23:53.047Z,4.69
2023-02-16T17:26:56.401Z,4.64
2023-02-16T17:29:59.300Z,4.46
2023-02-16T17:33:03.402Z,4.36
2023-02-16T17:36:08.369Z,4.29
2023-02-16T17:39:11.419Z,4.26
2023-02-16T17:42:14.774Z,4.16
2023-02-16T17:45:21.344Z,4.26
2023-02-16T17:48:28.357Z,4.00
2023-02-16T17:51:36.351Z,3.98
2023-02-16T17:54:39.738Z,4.12
2023-02-16T17:57:42.687Z,3.90
2023-02-16T18:00:46.499Z,3.85
2023-02-16T18:03:50.106Z,3.90
2023-02-16T18:06:53.201Z,3.83
2023-02-16T18:09:56.375Z,3.68
2023-02-16T18:12:59.545Z,3.63
2023-02-16T18:16:04.512Z,3.46
2023-02-16T18:19:09.969Z,3.34
2023-02-16T18:22:13.110Z,3.25
2023-02-16T18:25:16.837Z,3.19
2023-02-16T18:28:25.337Z,3.10
2023-02-16T18:31:29.460Z,3.02
2023-02-16T18:34:35.046Z,2.99
2023-02-16T18:37:38.372Z,3.04
2023-02-16T18:40:43.194Z,3.01
2023-02-16T18:43:46.289Z,2.98
2023-02-16T18:46:49.006Z,3.02
2023-02-16T18:49:52.710Z,2.92
2023-02-16T18:52:56.147Z,2.86
2023-02-16T18:55:59.299Z,2.89
2023-02-16T18:59:04.342Z,2.73
2023-02-16T19:02:08.267Z,2.52
2023-02-16T19:05:11.884Z,2.48
2023-02-16T19:08:15.128Z,2.44
2023-02-16T19:11:20.205Z,2.37
2023-02-16T19:14:23.412Z,2.41
2023-02-16T19:17:26.576Z,2.38
2023-02-16T19:20:30.986Z,2.17
2023-02-16T19:23:34.322Z,2.10
2023-02-16T19:26:39.541Z,1.99
2023-02-16T19:29:42.675Z,1.99
2023-02-16T19:32:46.208Z,2.01
2023-02-16T19:35:49.897Z,2.00
2023-02-16T19:38:53.517Z,1.92
2023-02-16T19:41:56.627Z,1.81
2023-02-16T19:45:00.982Z,1.80
2023-02-16T19:48:05.584Z,1.90
2023-02-16T19:51:09.882Z,1.97
2023-02-16T19:54:14.246Z,1.90
2023-02-16T19:57:17.318Z,1.89
2023-02-16T20:00:20.640Z,1.83
2023-02-16T20:03:23.847Z,1.87
2023-02-16T20:06:33.202Z,1.67
2023-02-16T20:09:37.527Z,1.51
2023-02-16T20:12:40.793Z,1.44
2023-02-16T20:15:43.802Z,1.33
2023-02-16T20:18:47.622Z,1.62
2023-02-16T20:21:50.688Z,1.83
2023-02-16T20:24:53.462Z,1.92
2023-02-16T20:27:58.061Z,1.92
2023-02-16T20:31:02.245Z,1.85
2023-02-16T20:34:07.049Z,1.86
2023-02-16T20:37:10.080Z,1.83
2023-02-16T20:40:13.450Z,1.79
2023-02-16T20:43:20.971Z,1.83
2023-02-16T20:46:25.030Z,1.70
2023-02-16T20:49:28.236Z,1.72
2023-02-16T20:52:31.325Z,1.76
2023-02-16T20:55:34.478Z,1.69
2023-02-16T20:58:37.978Z,1.48
2023-02-16T21:01:43.927Z,1.43
2023-02-16T21:04:46.982Z,1.43
2023-02-16T21:07:50.153Z,1.48
2023-02-16T21:10:53.188Z,1.42
2023-02-16T21:13:58.390Z,1.59
2023-02-16T21:17:01.406Z,1.68
2023-02-16T21:20:06.918Z,1.57
2023-02-16T21:23:14.269Z,1.51
2023-02-16T21:26:19.571Z,1.55
2023-02-16T21:29:22.692Z,1.62
2023-02-16T21:32:25.769Z,1.49
2023-02-16T21:35:28.898Z,1.60
2023-02-16T21:38:32.537Z,1.70
2023-02-16T21:41:35.509Z,1.62
2023-02-16T21:44:43.211Z,1.42
2023-02-16T21:48:05.802Z,1.08
2023-02-16T21:51:08.612Z,1.05
2023-02-16T21:54:14.900Z,1.08
2023-02-16T21:57:17.667Z,1.07
2023-02-16T22:00:21.280Z,0.93
2023-02-16T22:03:24.128Z,0.88
2023-02-16T22:06:32.403Z,0.80
2023-02-16T22:09:35.308Z,0.81
2023-02-16T22:12:38.010Z,0.85
2023-02-16T22:15:40.976Z,0.90
2023-02-16T22:18:47.017Z,0.79
2023-02-16T22:21:51.449Z,0.78
2023-02-16T22:24:54.173Z,0.72
2023-02-16T22:27:56.938Z,0.76
2023-02-16T22:31:08.696Z,0.74
2023-02-16T22:34:14.661Z,0.71
2023-02-16T22:37:17.442Z,0.71
2023-02-16T22:40:20.336Z,0.69
2023-02-16T22:43:23.046Z,0.60
2023-02-16T22:46:26.393Z,0.61
2023-02-16T22:49:29.575Z,0.56
2023-02-16T22:52:32.310Z,0.47
2023-02-16T22:55:35.026Z,0.50
2023-02-16T22:58:37.971Z,0.31
2023-02-16T23:01:40.990Z,0.43
2023-02-16T23:04:43.810Z,0.53
2023-02-16T23:07:46.560Z,0.51
2023-02-16T23:11:02.267Z,0.24
2023-02-16T23:14:06.195Z,0.14
2023-02-16T23:17:09.944Z,0.29
2023-02-16T23:20:12.833Z,0.33
2023-02-16T23:23:15.592Z,0.29
2023-02-16T23:26:20.371Z,0.29
2023-02-16T23:29:23.806Z,0.22
2023-02-16T23:32:26.631Z,0.26
2023-02-16T23:35:29.313Z,0.23
2023-02-16T23:38:32.107Z,0.08
2023-02-16T23:41:35.969Z,-0.07
2023-02-16T23:44:38.752Z,-0.26
2023-02-16T23:47:41.497Z,-0.42
2023-02-16T23:50:44.592Z,-0.22
2023-02-16T23:53:47.653Z,-0.30
2023-02-16T23:56:52.715Z,-0.87
2023-02-16T23:59:55.663Z,-0.77
